sensor_id;sensor_type;location;lat;lon;timestamp;temperature;humidity
15296;DHT22;7749;49.964;7.890;2024-02-23T00:01:56;8.40;99.90
15296;DHT22;7749;49.964;7.890;2024-02-23T00:04:23;8.40;99.90
15296;DHT22;7749;49.964;7.890;2024-02-23T00:06:50;8.40;99.90
15296;DHT22;7749;49.964;7.890;2024-02-23T00:09:18;8.50;99.90
15296;DHT22;7749;49.964;7.890;2024-02-23T00:11:45;8.50;99.90
15296;DHT22;7749;49.964;7.890;2024-02-23T00:14:15;8.50;99.90
15296;DHT22;7749;49.964;7.890;2024-02-23T00:16:45;8.50;99.90
15296;DHT22;7749;49.964;7.890;2024-02-23T00:19:13;8.40;99.90
15296;DHT22;7749;49.964;7.890;2024-02-23T00:21:42;8.40;99.90
15296;DHT22;7749;49.964;7.890;2024-02-23T00:24:09;8.40;99.90
15296;DHT22;7749;49.964;7.890;2024-02-23T00:26:37;8.40;99.90
15296;DHT22;7749;49.964;7.890;2024-02-23T00:29:04;8.40;99.90
15296;DHT22;7749;49.964;7.890;2024-02-23T00:31:31;8.40;99.90
15296;DHT22;7749;49.964;7.890;2024-02-23T00:33:59;8.40;99.90
15296;DHT22;7749;49.964;7.890;2024-02-23T00:36:26;8.40;99.90
15296;DHT22;7749;49.964;7.890;2024-02-23T00:38:54;8.30;99.90
15296;DHT22;7749;49.964;7.890;2024-02-23T00:41:21;8.10;99.90
15296;DHT22;7749;49.964;7.890;2024-02-23T00:43:49;7.90;99.90
15296;DHT22;7749;49.964;7.890;2024-02-23T00:46:16;7.80;99.90
15296;DHT22;7749;49.964;7.890;2024-02-23T00:48:43;7.60;99.90
15296;DHT22;7749;49.964;7.890;2024-02-23T00:51:11;7.50;99.90
15296;DHT22;7749;49.964;7.890;2024-02-23T00:53:38;7.40;99.90
15296;DHT22;7749;49.964;7.890;2024-02-23T00:56:06;7.30;99.90
15296;DHT22;7749;49.964;7.890;2024-02-23T00:58:33;7.30;99.90
15296;DHT22;7749;49.964;7.890;2024-02-23T01:01:01;7.30;99.90
15296;DHT22;7749;49.964;7.890;2024-02-23T01:03:28;7.30;99.90
15296;DHT22;7749;49.964;7.890;2024-02-23T01:05:56;7.30;99.90
15296;DHT22;7749;49.964;7.890;2024-02-23T01:08:23;7.30;99.90
15296;DHT22;7749;49.964;7.890;2024-02-23T01:10:51;7.30;99.90
15296;DHT22;7749;49.964;7.890;2024-02-23T01:13:18;7.20;99.90
15296;DHT22;7749;49.964;7.890;2024-02-23T01:15:45;7.20;99.90
15296;DHT22;7749;49.964;7.890;2024-02-23T01:18:13;7.20;99.90
15296;DHT22;7749;49.964;7.890;2024-02-23T01:20:41;7.10;99.90
15296;DHT22;7749;49.964;7.890;2024-02-23T01:23:09;7.00;99.90
15296;DHT22;7749;49.964;7.890;2024-02-23T01:25:36;7.00;99.90
15296;DHT22;7749;49.964;7.890;2024-02-23T01:28:04;6.90;99.90
15296;DHT22;7749;49.964;7.890;2024-02-23T01:30:32;6.90;99.90
15296;DHT22;7749;49.964;7.890;2024-02-23T01:32:59;6.80;99.90
15296;DHT22;7749;49.964;7.890;2024-02-23T01:35:27;6.80;99.90
15296;DHT22;7749;49.964;7.890;2024-02-23T01:37:56;6.70;99.90
15296;DHT22;7749;49.964;7.890;2024-02-23T01:40:23;6.70;99.90
15296;DHT22;7749;49.964;7.890;2024-02-23T01:43:20;6.60;99.90
15296;DHT22;7749;49.964;7.890;2024-02-23T01:45:47;6.60;99.90
15296;DHT22;7749;49.964;7.890;2024-02-23T01:48:15;6.60;99.90
15296;DHT22;7749;49.964;7.890;2024-02-23T01:50:44;6.60;99.90
15296;DHT22;7749;49.964;7.890;2024-02-23T01:53:12;6.50;99.90
15296;DHT22;7749;49.964;7.890;2024-02-23T01:55:41;6.50;99.90
15296;DHT22;7749;49.964;7.890;2024-02-23T01:58:09;6.50;99.90
15296;DHT22;7749;49.964;7.890;2024-02-23T02:00:36;6.40;99.90
15296;DHT22;7749;49.964;7.890;2024-02-23T02:03:04;6.30;99.90
15296;DHT22;7749;49.964;7.890;2024-02-23T02:05:37;6.40;99.90
15296;DHT22;7749;49.964;7.890;2024-02-23T02:08:05;6.40;99.90
15296;DHT22;7749;49.964;7.890;2024-02-23T02:10:33;6.40;99.90
15296;DHT22;7749;49.964;7.890;2024-02-23T02:13:04;6.40;99.90
15296;DHT22;7749;49.964;7.890;2024-02-23T02:15:32;6.40;99.90
15296;DHT22;7749;49.964;7.890;2024-02-23T02:18:00;6.40;99.90
15296;DHT22;7749;49.964;7.890;2024-02-23T02:20:28;6.40;99.90
15296;DHT22;7749;49.964;7.890;2024-02-23T02:22:59;6.30;99.90
15296;DHT22;7749;49.964;7.890;2024-02-23T02:25:27;6.30;99.90
15296;DHT22;7749;49.964;7.890;2024-02-23T02:27:54;6.30;99.90
15296;DHT22;7749;49.964;7.890;2024-02-23T02:30:21;6.40;99.90
15296;DHT22;7749;49.964;7.890;2024-02-23T02:32:49;6.50;99.90
15296;DHT22;7749;49.964;7.890;2024-02-23T02:35:16;6.50;99.90
15296;DHT22;7749;49.964;7.890;2024-02-23T02:37:43;6.50;99.90
15296;DHT22;7749;49.964;7.890;2024-02-23T02:40:11;6.50;99.90
15296;DHT22;7749;49.964;7.890;2024-02-23T02:42:38;6.50;99.90
15296;DHT22;7749;49.964;7.890;2024-02-23T02:45:06;6.50;99.90
15296;DHT22;7749;49.964;7.890;2024-02-23T02:47:33;6.50;99.90
15296;DHT22;7749;49.964;7.890;2024-02-23T02:50:01;6.50;99.90
15296;DHT22;7749;49.964;7.890;2024-02-23T02:52:28;6.40;99.90
15296;DHT22;7749;49.964;7.890;2024-02-23T02:54:55;6.40;99.90
15296;DHT22;7749;49.964;7.890;2024-02-23T02:57:23;6.40;99.90
15296;DHT22;7749;49.964;7.890;2024-02-23T02:59:50;6.40;99.90
15296;DHT22;7749;49.964;7.890;2024-02-23T03:02:17;6.40;99.90
15296;DHT22;7749;49.964;7.890;2024-02-23T03:04:48;6.30;99.90
15296;DHT22;7749;49.964;7.890;2024-02-23T03:07:16;6.30;99.90
15296;DHT22;7749;49.964;7.890;2024-02-23T03:09:44;6.30;99.90
15296;DHT22;7749;49.964;7.890;2024-02-23T03:12:11;6.30;99.90
15296;DHT22;7749;49.964;7.890;2024-02-23T03:14:59;6.30;99.90
15296;DHT22;7749;49.964;7.890;2024-02-23T06:54:11;6.30;99.90
15296;DHT22;7749;49.964;7.890;2024-02-23T06:56:38;6.30;99.90
15296;DHT22;7749;49.964;7.890;2024-02-23T06:59:06;6.30;99.90
15296;DHT22;7749;49.964;7.890;2024-02-23T07:01:33;6.30;99.90
15296;DHT22;7749;49.964;7.890;2024-02-23T07:04:06;6.40;99.90
15296;DHT22;7749;49.964;7.890;2024-02-23T07:06:34;6.50;99.90
15296;DHT22;7749;49.964;7.890;2024-02-23T07:09:03;6.50;99.90
15296;DHT22;7749;49.964;7.890;2024-02-23T07:11:31;6.60;99.90
15296;DHT22;7749;49.964;7.890;2024-02-23T07:13:59;6.60;99.90
15296;DHT22;7749;49.964;7.890;2024-02-23T07:16:26;6.70;99.90
15296;DHT22;7749;49.964;7.890;2024-02-23T07:18:54;6.70;99.90
15296;DHT22;7749;49.964;7.890;2024-02-23T07:21:22;6.80;99.90
15296;DHT22;7749;49.964;7.890;2024-02-23T07:23:50;6.80;99.90
15296;DHT22;7749;49.964;7.890;2024-02-23T07:26:17;6.90;99.90
15296;DHT22;7749;49.964;7.890;2024-02-23T07:28:46;6.90;99.90
15296;DHT22;7749;49.964;7.890;2024-02-23T07:31:14;7.00;99.90
15296;DHT22;7749;49.964;7.890;2024-02-23T07:33:42;7.00;99.90
15296;DHT22;7749;49.964;7.890;2024-02-23T07:36:16;7.00;99.90
15296;DHT22;7749;49.964;7.890;2024-02-23T07:38:44;7.00;99.90
15296;DHT22;7749;49.964;7.890;2024-02-23T07:41:11;6.90;99.90
15296;DHT22;7749;49.964;7.890;2024-02-23T07:43:40;6.90;99.90
15296;DHT22;7749;49.964;7.890;2024-02-23T07:46:08;7.00;99.90
15296;DHT22;7749;49.964;7.890;2024-02-23T07:48:36;6.90;99.90
15296;DHT22;7749;49.964;7.890;2024-02-23T07:51:05;7.00;99.90
15296;DHT22;7749;49.964;7.890;2024-02-23T07:53:32;7.10;99.90
15296;DHT22;7749;49.964;7.890;2024-02-23T07:56:00;7.10;99.90
15296;DHT22;7749;49.964;7.890;2024-02-23T07:58:29;7.10;99.90
15296;DHT22;7749;49.964;7.890;2024-02-23T08:00:57;7.10;99.90
15296;DHT22;7749;49.964;7.890;2024-02-23T08:03:24;7.10;99.90
15296;DHT22;7749;49.964;7.890;2024-02-23T08:05:53;7.10;99.90
15296;DHT22;7749;49.964;7.890;2024-02-23T08:08:20;7.10;99.90
15296;DHT22;7749;49.964;7.890;2024-02-23T08:10:50;7.10;99.90
15296;DHT22;7749;49.964;7.890;2024-02-23T08:13:17;7.10;99.90
15296;DHT22;7749;49.964;7.890;2024-02-23T08:15:45;7.20;99.90
15296;DHT22;7749;49.964;7.890;2024-02-23T08:18:12;7.20;99.90
15296;DHT22;7749;49.964;7.890;2024-02-23T08:20:40;7.30;99.90
15296;DHT22;7749;49.964;7.890;2024-02-23T08:23:07;7.30;99.90
15296;DHT22;7749;49.964;7.890;2024-02-23T08:25:36;7.40;99.90
15296;DHT22;7749;49.964;7.890;2024-02-23T08:28:04;7.40;99.90
15296;DHT22;7749;49.964;7.890;2024-02-23T08:30:32;7.50;99.90
15296;DHT22;7749;49.964;7.890;2024-02-23T08:32:59;7.60;99.90
15296;DHT22;7749;49.964;7.890;2024-02-23T08:35:27;7.60;99.90
15296;DHT22;7749;49.964;7.890;2024-02-23T08:37:54;7.70;99.90
15296;DHT22;7749;49.964;7.890;2024-02-23T08:40:22;7.70;99.90
15296;DHT22;7749;49.964;7.890;2024-02-23T08:42:49;7.90;99.90
15296;DHT22;7749;49.964;7.890;2024-02-23T08:45:17;8.10;99.90
15296;DHT22;7749;49.964;7.890;2024-02-23T08:47:45;8.10;99.90
15296;DHT22;7749;49.964;7.890;2024-02-23T08:50:12;8.20;99.90
15296;DHT22;7749;49.964;7.890;2024-02-23T08:52:40;8.20;99.90
15296;DHT22;7749;49.964;7.890;2024-02-23T08:55:08;8.20;99.90
15296;DHT22;7749;49.964;7.890;2024-02-23T08:57:36;8.20;99.90
15296;DHT22;7749;49.964;7.890;2024-02-23T09:00:04;8.30;99.90
15296;DHT22;7749;49.964;7.890;2024-02-23T09:02:33;8.30;99.90
15296;DHT22;7749;49.964;7.890;2024-02-23T09:05:02;8.20;99.90
15296;DHT22;7749;49.964;7.890;2024-02-23T09:07:30;8.20;99.90
15296;DHT22;7749;49.964;7.890;2024-02-23T09:09:58;8.20;99.90
15296;DHT22;7749;49.964;7.890;2024-02-23T09:12:25;8.20;99.90
15296;DHT22;7749;49.964;7.890;2024-02-23T09:14:53;8.40;99.90
15296;DHT22;7749;49.964;7.890;2024-02-23T09:17:20;8.50;99.90
15296;DHT22;7749;49.964;7.890;2024-02-23T09:19:48;8.50;99.90
15296;DHT22;7749;49.964;7.890;2024-02-23T09:22:15;8.50;99.90
15296;DHT22;7749;49.964;7.890;2024-02-23T09:24:43;8.40;99.90
15296;DHT22;7749;49.964;7.890;2024-02-23T09:27:11;8.40;99.90
15296;DHT22;7749;49.964;7.890;2024-02-23T09:29:40;8.40;99.90
15296;DHT22;7749;49.964;7.890;2024-02-23T09:32:08;8.50;99.90
15296;DHT22;7749;49.964;7.890;2024-02-23T09:34:35;8.70;99.90
15296;DHT22;7749;49.964;7.890;2024-02-23T09:37:03;8.70;99.90
15296;DHT22;7749;49.964;7.890;2024-02-23T09:39:30;8.70;99.90
15296;DHT22;7749;49.964;7.890;2024-02-23T09:41:58;8.80;99.90
15296;DHT22;7749;49.964;7.890;2024-02-23T09:44:32;8.80;99.90
15296;DHT22;7749;49.964;7.890;2024-02-23T09:47:03;8.80;99.90
15296;DHT22;7749;49.964;7.890;2024-02-23T09:49:38;8.80;99.90
15296;DHT22;7749;49.964;7.890;2024-02-23T09:52:07;8.80;99.90
15296;DHT22;7749;49.964;7.890;2024-02-23T09:54:37;8.80;99.90
15296;DHT22;7749;49.964;7.890;2024-02-23T09:57:09;9.00;99.90
15296;DHT22;7749;49.964;7.890;2024-02-23T09:59:38;9.10;99.90
15296;DHT22;7749;49.964;7.890;2024-02-23T10:02:09;9.40;99.90
15296;DHT22;7749;49.964;7.890;2024-02-23T10:04:39;9.40;99.90
15296;DHT22;7749;49.964;7.890;2024-02-23T10:07:07;9.60;99.90
15296;DHT22;7749;49.964;7.890;2024-02-23T10:09:35;9.30;99.90
15296;DHT22;7749;49.964;7.890;2024-02-23T10:12:03;9.00;99.90
15296;DHT22;7749;49.964;7.890;2024-02-23T10:14:31;9.20;99.90
15296;DHT22;7749;49.964;7.890;2024-02-23T10:16:58;9.50;99.90
15296;DHT22;7749;49.964;7.890;2024-02-23T10:19:26;9.80;99.90
15296;DHT22;7749;49.964;7.890;2024-02-23T10:21:56;9.80;99.10
15296;DHT22;7749;49.964;7.890;2024-02-23T10:24:25;9.80;98.50
15296;DHT22;7749;49.964;7.890;2024-02-23T10:26:53;9.80;96.30
15296;DHT22;7749;49.964;7.890;2024-02-23T10:29:20;9.70;94.70
15296;DHT22;7749;49.964;7.890;2024-02-23T10:31:51;9.80;94.60
15296;DHT22;7749;49.964;7.890;2024-02-23T10:34:20;10.00;94.70
15296;DHT22;7749;49.964;7.890;2024-02-23T10:36:47;10.20;95.60
15296;DHT22;7749;49.964;7.890;2024-02-23T10:39:18;10.50;94.80
15296;DHT22;7749;49.964;7.890;2024-02-23T10:42:02;10.40;92.40
15296;DHT22;7749;49.964;7.890;2024-02-23T10:44:31;10.10;94.10
15296;DHT22;7749;49.964;7.890;2024-02-23T10:46:59;9.80;95.00
15296;DHT22;7749;49.964;7.890;2024-02-23T10:49:27;9.90;94.60
15296;DHT22;7749;49.964;7.890;2024-02-23T10:51:55;10.20;92.80
15296;DHT22;7749;49.964;7.890;2024-02-23T10:54:23;10.50;92.10
15296;DHT22;7749;49.964;7.890;2024-02-23T10:56:51;10.90;90.90
15296;DHT22;7749;49.964;7.890;2024-02-23T10:59:20;11.50;83.40
15296;DHT22;7749;49.964;7.890;2024-02-23T11:01:51;11.20;81.40
15296;DHT22;7749;49.964;7.890;2024-02-23T11:04:21;11.50;78.90
15296;DHT22;7749;49.964;7.890;2024-02-23T11:06:52;12.20;65.90
15296;DHT22;7749;49.964;7.890;2024-02-23T11:09:23;14.10;56.30
15296;DHT22;7749;49.964;7.890;2024-02-23T11:11:54;16.60;22.20
15296;DHT22;7749;49.964;7.890;2024-02-23T11:14:32;16.10;99.90
15296;DHT22;7749;49.964;7.890;2024-02-23T11:17:02;14.10;99.90
15296;DHT22;7749;49.964;7.890;2024-02-23T11:19:34;13.00;99.90
15296;DHT22;7749;49.964;7.890;2024-02-23T11:22:03;12.10;99.90
15296;DHT22;7749;49.964;7.890;2024-02-23T11:24:31;11.90;99.90
15296;DHT22;7749;49.964;7.890;2024-02-23T11:27:00;13.10;99.90
15296;DHT22;7749;49.964;7.890;2024-02-23T11:29:35;15.80;99.90
15296;DHT22;7749;49.964;7.890;2024-02-23T11:32:14;16.50;99.90
15296;DHT22;7749;49.964;7.890;2024-02-23T11:34:42;17.10;83.30
15296;DHT22;7749;49.964;7.890;2024-02-23T11:37:10;17.40;36.80
15296;DHT22;7749;49.964;7.890;2024-02-23T11:39:38;17.60;1.00
15296;DHT22;7749;49.964;7.890;2024-02-23T11:42:08;17.00;1.00
15296;DHT22;7749;49.964;7.890;2024-02-23T11:44:36;16.50;1.00
15296;DHT22;7749;49.964;7.890;2024-02-23T11:47:03;16.70;1.00
15296;DHT22;7749;49.964;7.890;2024-02-23T11:49:31;15.60;1.00
15296;DHT22;7749;49.964;7.890;2024-02-23T11:51:59;13.70;1.00
15296;DHT22;7749;49.964;7.890;2024-02-23T11:54:26;12.50;23.10
15296;DHT22;7749;49.964;7.890;2024-02-23T11:56:54;11.90;99.90
15296;DHT22;7749;49.964;7.890;2024-02-23T11:59:22;11.80;99.90
15296;DHT22;7749;49.964;7.890;2024-02-23T12:01:50;11.60;99.90
15296;DHT22;7749;49.964;7.890;2024-02-23T12:04:17;11.30;99.90
15296;DHT22;7749;49.964;7.890;2024-02-23T12:06:45;10.50;99.90
15296;DHT22;7749;49.964;7.890;2024-02-23T12:09:13;10.60;1.00
15296;DHT22;7749;49.964;7.890;2024-02-23T12:11:41;11.00;1.00
15296;DHT22;7749;49.964;7.890;2024-02-23T12:14:09;11.30;1.00
15296;DHT22;7749;49.964;7.890;2024-02-23T12:16:36;11.20;99.90
15296;DHT22;7749;49.964;7.890;2024-02-23T12:19:04;11.00;99.90
15296;DHT22;7749;49.964;7.890;2024-02-23T12:21:34;10.80;1.00
15296;DHT22;7749;49.964;7.890;2024-02-23T12:24:07;10.80;1.00
15296;DHT22;7749;49.964;7.890;2024-02-23T12:26:37;10.80;1.00
15296;DHT22;7749;49.964;7.890;2024-02-23T12:29:05;10.80;99.90
15296;DHT22;7749;49.964;7.890;2024-02-23T12:31:32;10.50;99.90
15296;DHT22;7749;49.964;7.890;2024-02-23T12:34:00;10.40;99.90
15296;DHT22;7749;49.964;7.890;2024-02-23T12:36:28;10.40;99.90
15296;DHT22;7749;49.964;7.890;2024-02-23T12:38:58;10.60;1.00
15296;DHT22;7749;49.964;7.890;2024-02-23T12:41:25;11.00;99.90
15296;DHT22;7749;49.964;7.890;2024-02-23T12:43:52;11.20;99.90
15296;DHT22;7749;49.964;7.890;2024-02-23T12:46:20;11.50;99.90
15296;DHT22;7749;49.964;7.890;2024-02-23T12:48:48;11.60;99.90
15296;DHT22;7749;49.964;7.890;2024-02-23T12:51:15;12.00;99.90
15296;DHT22;7749;49.964;7.890;2024-02-23T12:53:43;12.50;99.90
15296;DHT22;7749;49.964;7.890;2024-02-23T12:56:13;13.20;99.90
15296;DHT22;7749;49.964;7.890;2024-02-23T12:58:44;13.80;99.90
15296;DHT22;7749;49.964;7.890;2024-02-23T13:01:12;15.40;99.90
15296;DHT22;7749;49.964;7.890;2024-02-23T13:03:39;16.40;48.50
15296;DHT22;7749;49.964;7.890;2024-02-23T13:06:10;15.90;3.00
15296;DHT22;7749;49.964;7.890;2024-02-23T13:08:38;15.00;7.10
15296;DHT22;7749;49.964;7.890;2024-02-23T13:11:07;14.00;8.70
15296;DHT22;7749;49.964;7.890;2024-02-23T13:13:35;13.00;47.90
15296;DHT22;7749;49.964;7.890;2024-02-23T13:16:03;12.10;84.50
15296;DHT22;7749;49.964;7.890;2024-02-23T13:18:30;11.30;99.90
15296;DHT22;7749;49.964;7.890;2024-02-23T13:20:58;10.90;99.90
15296;DHT22;7749;49.964;7.890;2024-02-23T13:23:25;10.60;99.90
15296;DHT22;7749;49.964;7.890;2024-02-23T13:25:53;10.40;99.90
15296;DHT22;7749;49.964;7.890;2024-02-23T13:28:20;10.50;99.90
15296;DHT22;7749;49.964;7.890;2024-02-23T13:30:48;10.40;99.90
15296;DHT22;7749;49.964;7.890;2024-02-23T13:33:15;10.30;99.90
15296;DHT22;7749;49.964;7.890;2024-02-23T13:35:43;10.30;99.90
15296;DHT22;7749;49.964;7.890;2024-02-23T13:38:11;10.40;1.00
15296;DHT22;7749;49.964;7.890;2024-02-23T13:40:38;10.40;99.90
15296;DHT22;7749;49.964;7.890;2024-02-23T13:43:05;10.40;99.90
15296;DHT22;7749;49.964;7.890;2024-02-23T13:45:33;10.40;99.90
15296;DHT22;7749;49.964;7.890;2024-02-23T13:48:14;10.50;99.90
15296;DHT22;7749;49.964;7.890;2024-02-23T13:50:41;10.70;99.90
15296;DHT22;7749;49.964;7.890;2024-02-23T13:53:09;10.90;99.90
15296;DHT22;7749;49.964;7.890;2024-02-23T13:55:37;11.30;99.90
15296;DHT22;7749;49.964;7.890;2024-02-23T13:58:04;11.70;99.90
15296;DHT22;7749;49.964;7.890;2024-02-23T14:00:31;13.10;99.90
15296;DHT22;7749;49.964;7.890;2024-02-23T14:02:59;13.80;99.90
15296;DHT22;7749;49.964;7.890;2024-02-23T14:05:26;13.90;99.90
15296;DHT22;7749;49.964;7.890;2024-02-23T14:07:55;13.90;99.90
15296;DHT22;7749;49.964;7.890;2024-02-23T14:10:22;13.80;99.90
15296;DHT22;7749;49.964;7.890;2024-02-23T14:12:50;13.20;99.90
15296;DHT22;7749;49.964;7.890;2024-02-23T14:15:18;12.60;99.90
15296;DHT22;7749;49.964;7.890;2024-02-23T14:17:45;12.50;99.90
15296;DHT22;7749;49.964;7.890;2024-02-23T14:20:13;12.60;99.90
15296;DHT22;7749;49.964;7.890;2024-02-23T14:22:40;13.30;99.90
15296;DHT22;7749;49.964;7.890;2024-02-23T14:25:08;14.70;99.90
15296;DHT22;7749;49.964;7.890;2024-02-23T14:27:35;14.80;56.20
15296;DHT22;7749;49.964;7.890;2024-02-23T14:30:03;15.00;45.40
15296;DHT22;7749;49.964;7.890;2024-02-23T14:32:31;15.00;25.00
15296;DHT22;7749;49.964;7.890;2024-02-23T14:34:59;14.50;10.30
15296;DHT22;7749;49.964;7.890;2024-02-23T14:37:28;13.80;20.90
15296;DHT22;7749;49.964;7.890;2024-02-23T14:39:56;13.10;30.10
15296;DHT22;7749;49.964;7.890;2024-02-23T14:42:23;12.60;56.10
15296;DHT22;7749;49.964;7.890;2024-02-23T14:44:51;12.40;78.10
15296;DHT22;7749;49.964;7.890;2024-02-23T14:47:18;12.10;95.70
15296;DHT22;7749;49.964;7.890;2024-02-23T14:49:52;12.10;99.90
15296;DHT22;7749;49.964;7.890;2024-02-23T14:52:20;12.10;99.90
15296;DHT22;7749;49.964;7.890;2024-02-23T14:54:47;12.30;99.90
15296;DHT22;7749;49.964;7.890;2024-02-23T14:57:15;12.70;99.90
15296;DHT22;7749;49.964;7.890;2024-02-23T14:59:42;14.70;95.40
15296;DHT22;7749;49.964;7.890;2024-02-23T15:02:21;16.30;2.30
15296;DHT22;7749;49.964;7.890;2024-02-23T15:04:49;15.70;1.00
15296;DHT22;7749;49.964;7.890;2024-02-23T15:07:16;14.70;1.00
15296;DHT22;7749;49.964;7.890;2024-02-23T15:09:44;13.80;1.00
15296;DHT22;7749;49.964;7.890;2024-02-23T15:12:11;13.10;1.00
15296;DHT22;7749;49.964;7.890;2024-02-23T15:14:39;13.60;1.00
15296;DHT22;7749;49.964;7.890;2024-02-23T15:17:07;15.30;1.00
15296;DHT22;7749;49.964;7.890;2024-02-23T15:19:35;16.70;1.00
15296;DHT22;7749;49.964;7.890;2024-02-23T15:22:02;17.00;1.00
15296;DHT22;7749;49.964;7.890;2024-02-23T15:24:30;16.60;1.00
15296;DHT22;7749;49.964;7.890;2024-02-23T15:26:57;15.70;1.00
15296;DHT22;7749;49.964;7.890;2024-02-23T15:29:25;14.60;1.00
15296;DHT22;7749;49.964;7.890;2024-02-23T15:31:52;13.50;1.00
15296;DHT22;7749;49.964;7.890;2024-02-23T15:34:20;12.70;1.00
15296;DHT22;7749;49.964;7.890;2024-02-23T15:36:47;12.10;1.00
15296;DHT22;7749;49.964;7.890;2024-02-23T15:39:15;11.70;1.00
15296;DHT22;7749;49.964;7.890;2024-02-23T15:41:42;11.40;27.40
15296;DHT22;7749;49.964;7.890;2024-02-23T15:44:10;11.10;88.50
15296;DHT22;7749;49.964;7.890;2024-02-23T15:46:37;10.90;99.90
15296;DHT22;7749;49.964;7.890;2024-02-23T15:49:04;10.70;99.90
15296;DHT22;7749;49.964;7.890;2024-02-23T15:51:53;10.60;99.90
15296;DHT22;7749;49.964;7.890;2024-02-23T15:54:27;10.50;99.90
15296;DHT22;7749;49.964;7.890;2024-02-23T15:56:57;10.50;99.90
15296;DHT22;7749;49.964;7.890;2024-02-23T15:59:24;10.50;99.90
15296;DHT22;7749;49.964;7.890;2024-02-23T16:01:53;10.40;99.90
15296;DHT22;7749;49.964;7.890;2024-02-23T16:04:22;10.30;99.90
15296;DHT22;7749;49.964;7.890;2024-02-23T16:06:50;10.40;99.90
15296;DHT22;7749;49.964;7.890;2024-02-23T16:09:17;10.30;99.90
15296;DHT22;7749;49.964;7.890;2024-02-23T16:11:46;10.30;1.00
15296;DHT22;7749;49.964;7.890;2024-02-23T16:14:15;10.00;1.00
15296;DHT22;7749;49.964;7.890;2024-02-23T16:16:42;9.50;1.00
15296;DHT22;7749;49.964;7.890;2024-02-23T16:19:10;8.90;99.90
15296;DHT22;7749;49.964;7.890;2024-02-23T16:21:40;8.60;99.90
15296;DHT22;7749;49.964;7.890;2024-02-23T16:24:10;8.30;1.00
15296;DHT22;7749;49.964;7.890;2024-02-23T16:26:37;8.10;1.00
15296;DHT22;7749;49.964;7.890;2024-02-23T16:29:06;8.10;1.00
15296;DHT22;7749;49.964;7.890;2024-02-23T16:31:35;8.10;87.30
15296;DHT22;7749;49.964;7.890;2024-02-23T16:34:04;8.10;99.90
15296;DHT22;7749;49.964;7.890;2024-02-23T16:36:31;8.10;99.90
15296;DHT22;7749;49.964;7.890;2024-02-23T16:38:59;8.00;99.90
15296;DHT22;7749;49.964;7.890;2024-02-23T16:41:26;7.90;99.90
15296;DHT22;7749;49.964;7.890;2024-02-23T16:43:55;7.90;99.90
15296;DHT22;7749;49.964;7.890;2024-02-23T16:46:23;7.90;99.90
15296;DHT22;7749;49.964;7.890;2024-02-23T16:48:50;7.80;99.90
15296;DHT22;7749;49.964;7.890;2024-02-23T16:51:18;7.80;99.90
15296;DHT22;7749;49.964;7.890;2024-02-23T16:53:45;7.70;99.90
15296;DHT22;7749;49.964;7.890;2024-02-23T16:56:13;7.60;99.90
15296;DHT22;7749;49.964;7.890;2024-02-23T16:58:40;7.60;99.90
15296;DHT22;7749;49.964;7.890;2024-02-23T17:01:08;7.60;99.90
15296;DHT22;7749;49.964;7.890;2024-02-23T17:03:35;7.60;99.90
15296;DHT22;7749;49.964;7.890;2024-02-23T17:06:04;7.60;99.90
15296;DHT22;7749;49.964;7.890;2024-02-23T17:08:34;7.60;99.90
15296;DHT22;7749;49.964;7.890;2024-02-23T17:11:02;7.50;99.90
15296;DHT22;7749;49.964;7.890;2024-02-23T17:13:29;7.50;99.90
15296;DHT22;7749;49.964;7.890;2024-02-23T17:15:57;7.50;99.90
15296;DHT22;7749;49.964;7.890;2024-02-23T17:18:24;7.50;99.90
15296;DHT22;7749;49.964;7.890;2024-02-23T17:20:52;7.40;99.90
15296;DHT22;7749;49.964;7.890;2024-02-23T17:23:20;7.40;99.90
15296;DHT22;7749;49.964;7.890;2024-02-23T17:25:48;7.30;99.90
15296;DHT22;7749;49.964;7.890;2024-02-23T17:28:17;7.30;99.90
15296;DHT22;7749;49.964;7.890;2024-02-23T17:30:44;7.20;99.90
15296;DHT22;7749;49.964;7.890;2024-02-23T17:33:11;7.10;99.90
15296;DHT22;7749;49.964;7.890;2024-02-23T17:35:39;7.00;99.90
15296;DHT22;7749;49.964;7.890;2024-02-23T17:38:06;7.00;99.90
15296;DHT22;7749;49.964;7.890;2024-02-23T17:40:34;7.00;99.90
15296;DHT22;7749;49.964;7.890;2024-02-23T17:43:01;6.90;99.90
15296;DHT22;7749;49.964;7.890;2024-02-23T17:45:29;6.90;99.90
15296;DHT22;7749;49.964;7.890;2024-02-23T17:47:56;6.90;99.90
15296;DHT22;7749;49.964;7.890;2024-02-23T17:50:24;6.80;99.90
15296;DHT22;7749;49.964;7.890;2024-02-23T17:52:52;6.80;99.90
15296;DHT22;7749;49.964;7.890;2024-02-23T17:55:19;6.70;99.90
15296;DHT22;7749;49.964;7.890;2024-02-23T17:57:47;6.70;99.90
15296;DHT22;7749;49.964;7.890;2024-02-23T18:00:14;6.80;99.90
15296;DHT22;7749;49.964;7.890;2024-02-23T18:02:42;6.80;99.90
15296;DHT22;7749;49.964;7.890;2024-02-23T18:05:09;6.80;99.90
15296;DHT22;7749;49.964;7.890;2024-02-23T18:07:37;6.80;99.90
15296;DHT22;7749;49.964;7.890;2024-02-23T18:10:04;6.80;99.90
15296;DHT22;7749;49.964;7.890;2024-02-23T18:12:32;6.80;99.90
15296;DHT22;7749;49.964;7.890;2024-02-23T18:15:00;6.80;99.90
15296;DHT22;7749;49.964;7.890;2024-02-23T18:17:27;6.80;99.90
15296;DHT22;7749;49.964;7.890;2024-02-23T18:19:55;6.80;99.90
15296;DHT22;7749;49.964;7.890;2024-02-23T18:22:22;6.80;99.90
15296;DHT22;7749;49.964;7.890;2024-02-23T18:24:49;6.80;99.90
15296;DHT22;7749;49.964;7.890;2024-02-23T18:27:17;6.70;99.90
15296;DHT22;7749;49.964;7.890;2024-02-23T18:29:44;6.70;99.90
15296;DHT22;7749;49.964;7.890;2024-02-23T18:32:11;6.70;99.90
15296;DHT22;7749;49.964;7.890;2024-02-23T18:34:39;6.70;99.90
15296;DHT22;7749;49.964;7.890;2024-02-23T18:37:07;6.70;99.90
15296;DHT22;7749;49.964;7.890;2024-02-23T18:39:35;6.70;99.90
15296;DHT22;7749;49.964;7.890;2024-02-23T18:42:03;6.70;99.90
15296;DHT22;7749;49.964;7.890;2024-02-23T18:44:31;6.60;99.90
15296;DHT22;7749;49.964;7.890;2024-02-23T18:46:58;6.50;99.90
15296;DHT22;7749;49.964;7.890;2024-02-23T18:49:25;6.50;99.90
15296;DHT22;7749;49.964;7.890;2024-02-23T18:51:58;6.50;99.90
15296;DHT22;7749;49.964;7.890;2024-02-23T18:54:29;6.40;99.90
15296;DHT22;7749;49.964;7.890;2024-02-23T18:56:56;6.40;99.90
15296;DHT22;7749;49.964;7.890;2024-02-23T18:59:25;6.30;99.90
15296;DHT22;7749;49.964;7.890;2024-02-23T19:01:54;6.30;99.90
15296;DHT22;7749;49.964;7.890;2024-02-23T19:04:21;6.30;99.90
15296;DHT22;7749;49.964;7.890;2024-02-23T19:06:49;6.30;99.90
15296;DHT22;7749;49.964;7.890;2024-02-23T19:09:18;6.30;99.90
15296;DHT22;7749;49.964;7.890;2024-02-23T19:11:45;6.30;99.90
15296;DHT22;7749;49.964;7.890;2024-02-23T19:14:13;6.30;99.90
15296;DHT22;7749;49.964;7.890;2024-02-23T19:16:40;6.30;99.90
15296;DHT22;7749;49.964;7.890;2024-02-23T19:19:11;6.30;99.90
15296;DHT22;7749;49.964;7.890;2024-02-23T19:21:38;6.30;99.90
15296;DHT22;7749;49.964;7.890;2024-02-23T19:24:06;6.30;99.90
15296;DHT22;7749;49.964;7.890;2024-02-23T19:26:33;6.30;99.90
15296;DHT22;7749;49.964;7.890;2024-02-23T19:29:01;6.20;99.90
15296;DHT22;7749;49.964;7.890;2024-02-23T19:31:30;6.20;99.90
15296;DHT22;7749;49.964;7.890;2024-02-23T19:33:57;6.20;99.90
15296;DHT22;7749;49.964;7.890;2024-02-23T19:36:25;6.20;99.90
15296;DHT22;7749;49.964;7.890;2024-02-23T19:38:53;6.10;99.90
15296;DHT22;7749;49.964;7.890;2024-02-23T19:41:20;6.10;99.90